createdAt,value
2023-12-08T00:01:19.544Z,17.73
2023-12-08T00:03:46.901Z,16.35
2023-12-08T00:06:13.991Z,16.73
2023-12-08T00:08:42.604Z,15.25
2023-12-08T00:11:12.418Z,13.48
2023-12-08T00:13:39.801Z,13.55
2023-12-08T00:16:07.087Z,12.90
2023-12-08T00:18:34.454Z,12.15
2023-12-08T00:21:01.478Z,13.48
2023-12-08T00:23:29.025Z,12.90
2023-12-08T00:25:56.104Z,13.63
2023-12-08T00:28:23.315Z,12.25
2023-12-08T00:30:50.211Z,13.18
2023-12-08T00:33:17.855Z,12.45
2023-12-08T00:35:45.134Z,13.13
2023-12-08T00:38:12.463Z,13.40
2023-12-08T00:40:39.546Z,11.45
2023-12-08T00:43:06.776Z,11.70
2023-12-08T00:45:33.857Z,11.00
2023-12-08T00:48:01.173Z,11.55
2023-12-08T00:50:28.273Z,10.98
2023-12-08T00:52:55.721Z,10.50
2023-12-08T00:55:22.699Z,11.88
2023-12-08T00:57:50.041Z,11.55
2023-12-08T01:00:19.070Z,10.70
2023-12-08T01:02:46.610Z,12.35
2023-12-08T01:05:13.580Z,10.95
2023-12-08T01:07:40.863Z,11.63
2023-12-08T01:10:08.584Z,11.02
2023-12-08T01:12:36.971Z,10.02
2023-12-08T01:15:05.589Z,9.55
2023-12-08T01:17:32.953Z,9.82
2023-12-08T01:20:00.048Z,8.75
2023-12-08T01:22:29.264Z,8.60
2023-12-08T01:24:56.508Z,8.77
2023-12-08T01:27:24.340Z,8.30
2023-12-08T01:29:52.046Z,8.15
2023-12-08T01:32:19.262Z,7.10
2023-12-08T01:34:46.196Z,8.60
2023-12-08T01:37:13.420Z,8.10
2023-12-08T01:39:41.276Z,7.10
2023-12-08T01:42:08.502Z,8.13
2023-12-08T01:44:35.551Z,7.13
2023-12-08T01:47:03.306Z,6.78
2023-12-08T01:49:31.000Z,7.82
2023-12-08T01:51:58.410Z,7.57
2023-12-08T01:54:26.512Z,7.72
2023-12-08T01:56:53.942Z,8.38
2023-12-08T01:59:22.458Z,7.63
2023-12-08T02:01:49.895Z,8.77
2023-12-08T02:04:17.231Z,8.10
2023-12-08T02:06:44.542Z,7.82
2023-12-08T02:09:11.782Z,7.57
2023-12-08T02:11:39.513Z,7.00
2023-12-08T02:14:06.838Z,7.05
2023-12-08T02:16:54.261Z,7.00
2023-12-08T02:19:22.496Z,6.75
2023-12-08T02:21:50.237Z,7.32
2023-12-08T02:24:20.653Z,6.75
2023-12-08T02:26:50.463Z,7.45
2023-12-08T02:29:18.228Z,6.93
2023-12-08T02:31:53.065Z,7.07
2023-12-08T02:34:25.784Z,7.80
2023-12-08T02:36:55.480Z,7.57
2023-12-08T02:39:23.920Z,6.53
2023-12-08T02:41:52.636Z,7.70
2023-12-08T02:44:19.616Z,7.22
2023-12-08T02:46:47.892Z,6.60
2023-12-08T02:49:15.074Z,7.05
2023-12-08T02:51:42.328Z,7.75
2023-12-08T02:54:09.399Z,7.20
2023-12-08T02:56:36.685Z,7.75
2023-12-08T02:59:03.625Z,7.30
2023-12-08T03:01:30.888Z,7.40
2023-12-08T03:03:58.278Z,7.97
2023-12-08T03:06:25.569Z,7.80
2023-12-08T03:08:52.494Z,7.90
2023-12-08T03:11:19.792Z,8.27
2023-12-08T03:13:46.836Z,7.40
2023-12-08T03:16:14.099Z,7.30
2023-12-08T03:18:41.112Z,8.07
2023-12-08T03:21:08.414Z,7.28
2023-12-08T03:23:35.889Z,7.55
2023-12-08T03:26:03.858Z,7.57
2023-12-08T03:28:30.745Z,7.30
2023-12-08T03:30:57.925Z,7.15
2023-12-08T03:33:24.988Z,6.88
2023-12-08T03:35:52.296Z,7.00
2023-12-08T03:38:19.278Z,6.63
2023-12-08T03:40:46.448Z,7.30
2023-12-08T03:43:13.453Z,6.68
2023-12-08T03:45:40.580Z,6.72
2023-12-08T03:48:07.634Z,7.00
2023-12-08T03:50:34.944Z,6.75
2023-12-08T03:53:01.924Z,6.93
2023-12-08T03:55:29.136Z,6.88
2023-12-08T03:57:56.057Z,6.80
2023-12-08T04:00:23.406Z,7.50
2023-12-08T04:02:50.447Z,7.60
2023-12-08T04:05:17.707Z,7.68
2023-12-08T04:07:44.666Z,7.15
2023-12-08T04:10:11.775Z,8.13
2023-12-08T04:12:38.742Z,7.78
2023-12-08T04:15:06.932Z,6.78
2023-12-08T04:17:34.087Z,7.25
2023-12-08T04:20:01.891Z,7.72
2023-12-08T04:22:28.966Z,7.45
2023-12-08T04:24:56.312Z,8.32
2023-12-08T04:27:23.532Z,8.68
2023-12-08T04:29:51.083Z,8.30
2023-12-08T04:32:18.124Z,8.95
2023-12-08T04:34:45.407Z,8.93
2023-12-08T04:37:12.429Z,8.32
2023-12-08T04:39:39.912Z,8.68
2023-12-08T04:42:07.031Z,9.68
2023-12-08T04:44:34.652Z,9.82
2023-12-08T04:47:01.747Z,10.02
2023-12-08T04:49:29.360Z,10.55
2023-12-08T04:51:56.382Z,11.25
2023-12-08T04:54:23.616Z,12.05
2023-12-08T04:56:50.659Z,12.18
2023-12-08T04:59:17.943Z,12.60
2023-12-08T05:01:44.940Z,13.35
2023-12-08T05:04:12.395Z,14.30
2023-12-08T05:06:39.401Z,15.02
2023-12-08T05:09:06.712Z,13.48
2023-12-08T05:11:33.891Z,14.35
2023-12-08T05:14:01.346Z,14.35
2023-12-08T05:16:28.305Z,14.23
2023-12-08T05:18:55.624Z,14.27
2023-12-08T05:21:22.788Z,15.75
2023-12-08T05:23:50.023Z,17.13
2023-12-08T05:26:17.040Z,17.88
2023-12-08T05:28:44.389Z,16.80
2023-12-08T05:31:11.445Z,18.77
2023-12-08T05:33:38.935Z,17.25
2023-12-08T05:36:07.125Z,17.88
2023-12-08T05:38:34.492Z,18.08
2023-12-08T05:41:01.453Z,17.80
2023-12-08T05:43:29.556Z,17.77
2023-12-08T05:45:56.817Z,18.33
2023-12-08T05:48:24.595Z,19.20
2023-12-08T05:50:51.720Z,18.70
2023-12-08T05:53:19.088Z,21.45
2023-12-08T05:55:46.105Z,21.75
2023-12-08T05:58:13.360Z,19.75
2023-12-08T06:00:40.348Z,20.33
2023-12-08T06:03:07.515Z,19.67
2023-12-08T06:05:34.780Z,19.45
2023-12-08T06:08:02.043Z,19.92
2023-12-08T06:10:29.042Z,20.60
2023-12-08T06:12:56.300Z,19.42
2023-12-08T06:15:23.398Z,20.95
2023-12-08T06:17:50.770Z,21.77
2023-12-08T06:20:17.897Z,20.30
2023-12-08T06:22:45.227Z,20.92
2023-12-08T06:25:12.235Z,20.83
2023-12-08T06:27:39.500Z,20.05
2023-12-08T06:30:12.522Z,19.65
2023-12-08T06:32:39.989Z,19.73
2023-12-08T06:35:08.050Z,20.63
2023-12-08T06:37:36.326Z,18.95
2023-12-08T06:40:04.964Z,18.73
2023-12-08T06:42:32.199Z,20.00
2023-12-08T06:45:00.446Z,20.25
2023-12-08T06:47:28.404Z,17.95
2023-12-08T06:49:55.578Z,16.85
2023-12-08T06:52:22.903Z,20.35
2023-12-08T06:54:50.746Z,16.98
2023-12-08T06:57:18.145Z,17.35
2023-12-08T06:59:45.177Z,19.02
2023-12-08T07:02:12.551Z,19.77
2023-12-08T07:04:39.583Z,19.42
2023-12-08T07:07:06.980Z,18.63
2023-12-08T07:09:33.984Z,18.38
2023-12-08T07:12:01.321Z,19.98
2023-12-08T07:14:28.371Z,20.27
2023-12-08T07:16:58.644Z,17.65
2023-12-08T07:19:25.658Z,19.13
2023-12-08T07:21:53.038Z,17.80
2023-12-08T07:24:20.101Z,18.80
2023-12-08T07:26:47.413Z,18.55
2023-12-08T07:29:14.400Z,19.70
2023-12-08T07:31:41.640Z,19.52
2023-12-08T07:34:08.645Z,17.95
2023-12-08T07:36:35.918Z,19.23
2023-12-08T07:39:02.973Z,16.40
2023-12-08T07:41:30.271Z,18.63
2023-12-08T07:43:57.906Z,18.70
2023-12-08T07:46:25.382Z,18.73
2023-12-08T07:48:52.475Z,16.65
2023-12-08T07:51:20.436Z,24.40
2023-12-08T07:53:47.459Z,20.55
2023-12-08T07:56:15.103Z,20.02
2023-12-08T07:58:42.139Z,18.52
2023-12-08T08:01:10.172Z,19.05
2023-12-08T08:03:37.184Z,18.65
2023-12-08T08:06:05.237Z,22.98
2023-12-08T08:08:34.374Z,20.55
2023-12-08T08:11:01.779Z,20.38
2023-12-08T08:13:28.902Z,21.45
2023-12-08T08:15:56.196Z,20.42
2023-12-08T08:18:23.350Z,20.17
2023-12-08T08:20:50.832Z,20.45
2023-12-08T08:23:17.825Z,20.98
2023-12-08T08:25:45.071Z,24.33
2023-12-08T08:28:12.086Z,20.95
2023-12-08T08:30:43.164Z,22.08
2023-12-08T08:33:10.451Z,20.85
2023-12-08T08:35:40.672Z,22.40
2023-12-08T08:38:08.155Z,20.92
2023-12-08T08:40:35.531Z,21.27
2023-12-08T08:43:02.609Z,20.80
2023-12-08T08:45:29.905Z,18.98
2023-12-08T08:47:57.023Z,20.02
2023-12-08T08:50:25.039Z,20.58
2023-12-08T08:52:52.948Z,18.48
2023-12-08T08:55:20.138Z,18.52
2023-12-08T08:57:48.441Z,19.98
2023-12-08T09:00:16.138Z,21.23
2023-12-08T09:02:45.364Z,19.38
2023-12-08T09:05:13.237Z,21.15
2023-12-08T09:07:40.265Z,18.40
2023-12-08T09:10:08.719Z,18.70
2023-12-08T09:12:35.845Z,18.48
2023-12-08T09:15:04.932Z,18.63
2023-12-08T09:17:32.072Z,18.20
2023-12-08T09:19:59.395Z,17.33
2023-12-08T09:22:26.609Z,17.67
2023-12-08T09:24:54.111Z,19.10
2023-12-08T09:27:21.117Z,18.58
2023-12-08T09:29:48.413Z,19.80
2023-12-08T09:32:15.573Z,17.77
2023-12-08T09:34:43.237Z,18.20
2023-12-08T09:37:26.702Z,16.67
2023-12-08T09:39:58.192Z,16.92
2023-12-08T09:42:35.436Z,17.35
2023-12-08T09:45:06.169Z,17.65
2023-12-08T09:47:37.629Z,18.20
2023-12-08T09:50:08.527Z,19.48
2023-12-08T09:52:36.173Z,18.33
2023-12-08T09:55:05.295Z,17.77
2023-12-08T09:57:35.050Z,24.35
2023-12-08T10:00:11.727Z,18.52
2023-12-08T10:02:39.137Z,19.48
2023-12-08T10:05:10.907Z,18.48
2023-12-08T10:07:41.877Z,19.40
2023-12-08T10:10:11.180Z,18.55
2023-12-08T10:12:41.387Z,20.25
2023-12-08T10:15:13.476Z,18.85
2023-12-08T10:17:53.313Z,19.95
2023-12-08T10:20:22.735Z,21.45
2023-12-08T10:23:02.757Z,19.77
2023-12-08T10:25:32.307Z,20.88
2023-12-08T10:27:59.400Z,19.48
2023-12-08T10:30:28.303Z,19.55
2023-12-08T10:32:55.931Z,19.20
2023-12-08T10:35:23.642Z,18.70
2023-12-08T10:37:51.610Z,19.45
2023-12-08T10:40:20.200Z,19.92
2023-12-08T10:42:51.159Z,19.80
2023-12-08T10:45:18.879Z,20.50
2023-12-08T10:47:51.158Z,18.75
2023-12-08T10:50:20.791Z,20.83
2023-12-08T10:52:49.435Z,19.17
2023-12-08T10:55:17.198Z,21.65
2023-12-08T10:57:49.315Z,19.92
2023-12-08T11:00:20.453Z,20.63
2023-12-08T11:02:50.441Z,19.35
2023-12-08T11:05:29.931Z,20.23
2023-12-08T11:08:05.162Z,20.35
2023-12-08T11:10:39.130Z,18.17
2023-12-08T11:13:39.517Z,19.10
2023-12-08T11:16:30.700Z,19.45
2023-12-08T11:18:58.484Z,20.25
2023-12-08T11:21:27.527Z,19.20
2023-12-08T11:23:56.059Z,21.95
2023-12-08T11:26:54.262Z,20.95
2023-12-08T11:29:51.406Z,19.73
2023-12-08T11:32:30.811Z,23.05
2023-12-08T11:35:02.689Z,20.45
2023-12-08T11:37:30.643Z,18.45
2023-12-08T11:40:08.726Z,20.67
2023-12-08T11:42:36.103Z,19.55
2023-12-08T11:45:03.297Z,20.27
2023-12-08T11:47:32.288Z,19.42
2023-12-08T11:50:08.459Z,20.92
2023-12-08T11:52:38.560Z,18.92
2023-12-08T11:55:22.648Z,18.42
2023-12-08T11:58:02.854Z,18.50
2023-12-08T12:00:38.874Z,19.63
2023-12-08T12:03:09.778Z,19.77
2023-12-08T12:05:37.667Z,18.40
2023-12-08T12:08:08.270Z,18.48
2023-12-08T12:10:36.735Z,18.98
2023-12-08T12:13:15.197Z,19.98
2023-12-08T12:15:43.837Z,18.77
2023-12-08T12:18:15.532Z,17.73
2023-12-08T12:20:44.183Z,17.20
2023-12-08T12:23:16.106Z,18.20
2023-12-08T12:25:47.051Z,17.83
2023-12-08T12:28:18.324Z,17.85
2023-12-08T12:30:49.927Z,18.13
2023-12-08T12:33:17.475Z,19.00
2023-12-08T12:35:48.973Z,17.42
2023-12-08T12:38:21.238Z,17.27
2023-12-08T12:40:48.211Z,20.35
2023-12-08T12:43:21.022Z,19.77
2023-12-08T12:45:50.398Z,21.90
2023-12-08T12:48:23.828Z,18.17
2023-12-08T12:50:55.639Z,18.98
2023-12-08T12:53:24.144Z,18.17
2023-12-08T12:56:05.548Z,19.05
2023-12-08T12:58:32.804Z,21.10
2023-12-08T13:01:14.276Z,21.08
2023-12-08T13:03:46.964Z,19.25
2023-12-08T13:06:14.370Z,19.65
2023-12-08T13:08:45.169Z,19.52
2023-12-08T13:11:12.277Z,21.55
2023-12-08T13:13:39.514Z,20.08
2023-12-08T13:16:08.344Z,18.98
2023-12-08T13:18:36.372Z,20.20
2023-12-08T13:21:04.128Z,20.70
2023-12-08T13:23:31.559Z,18.33
2023-12-08T13:26:01.540Z,22.15
2023-12-08T13:28:28.906Z,21.23
2023-12-08T13:30:55.788Z,21.35
2023-12-08T13:33:24.289Z,19.67
2023-12-08T13:35:53.910Z,18.92
2023-12-08T13:38:22.893Z,21.20
2023-12-08T13:40:53.082Z,25.42
2023-12-08T13:43:20.391Z,19.58
2023-12-08T13:45:47.324Z,19.92
2023-12-08T13:48:17.655Z,21.63
2023-12-08T13:50:54.264Z,21.17
2023-12-08T13:53:26.810Z,19.83
2023-12-08T13:55:55.888Z,21.70
2023-12-08T13:58:23.135Z,23.88
2023-12-08T14:00:50.176Z,21.45
2023-12-08T14:03:17.547Z,20.30
2023-12-08T14:05:45.771Z,20.08
2023-12-08T14:08:13.008Z,21.30
2023-12-08T14:10:39.930Z,21.55
2023-12-08T14:13:07.407Z,20.70
2023-12-08T14:15:34.811Z,20.25
2023-12-08T14:18:02.455Z,22.38
2023-12-08T14:20:29.726Z,20.00
2023-12-08T14:22:57.005Z,20.80
2023-12-08T14:25:23.951Z,20.63
2023-12-08T14:27:51.309Z,19.75
2023-12-08T14:30:18.335Z,21.40
2023-12-08T14:32:45.812Z,21.52
2023-12-08T14:35:19.377Z,22.63
2023-12-08T14:37:54.035Z,20.95
2023-12-08T14:40:21.259Z,21.27
2023-12-08T14:42:50.011Z,23.10
2023-12-08T14:45:17.958Z,20.33
2023-12-08T14:47:45.550Z,21.80
2023-12-08T14:50:12.767Z,22.83
2023-12-08T14:52:40.997Z,21.55
2023-12-08T14:55:15.922Z,22.02
2023-12-08T14:57:45.849Z,22.50
2023-12-08T15:00:14.142Z,22.52
2023-12-08T15:02:41.510Z,22.38
2023-12-08T15:05:09.129Z,22.30
2023-12-08T15:07:36.565Z,22.80
2023-12-08T15:10:06.049Z,21.92
2023-12-08T15:12:36.345Z,20.58
2023-12-08T15:15:07.211Z,19.83
2023-12-08T15:17:36.021Z,20.63
2023-12-08T15:20:05.457Z,22.58
2023-12-08T15:22:34.305Z,24.15
2023-12-08T15:25:01.325Z,24.88
2023-12-08T15:27:29.021Z,21.70
2023-12-08T15:29:57.619Z,20.75
2023-12-08T15:32:25.138Z,20.05
2023-12-08T15:34:52.166Z,24.13
2023-12-08T15:37:19.343Z,24.35
2023-12-08T15:39:46.279Z,23.45
2023-12-08T15:42:13.570Z,23.17
2023-12-08T15:44:41.953Z,24.45
2023-12-08T15:47:09.179Z,24.33
2023-12-08T15:49:36.645Z,23.17
2023-12-08T15:52:04.583Z,23.35
2023-12-08T15:54:35.723Z,24.63
2023-12-08T15:57:32.662Z,24.40
2023-12-08T16:00:02.778Z,21.90
2023-12-08T16:02:30.136Z,24.08
2023-12-08T16:04:57.223Z,22.65
2023-12-08T16:07:25.794Z,23.80
2023-12-08T16:09:53.047Z,23.58
2023-12-08T16:12:20.741Z,24.00
2023-12-08T16:14:47.981Z,24.85
2023-12-08T16:17:15.840Z,24.35
2023-12-08T16:19:46.053Z,23.75
2023-12-08T16:22:13.328Z,26.20
2023-12-08T16:24:47.331Z,27.05
2023-12-08T16:27:25.401Z,23.85
2023-12-08T16:29:53.066Z,22.95
2023-12-08T16:32:20.550Z,24.70
2023-12-08T16:34:47.680Z,23.80
2023-12-08T16:37:15.412Z,23.48
2023-12-08T16:39:42.523Z,24.30
2023-12-08T16:42:53.554Z,25.42
2023-12-08T16:45:20.735Z,23.08
2023-12-08T16:47:48.288Z,22.98
2023-12-08T16:50:15.542Z,22.60
2023-12-08T16:52:42.865Z,23.48
2023-12-08T16:55:09.998Z,22.83
2023-12-08T16:57:37.596Z,21.75
2023-12-08T17:00:05.503Z,21.98
2023-12-08T17:02:32.818Z,22.77
2023-12-08T17:04:59.890Z,22.40
2023-12-08T17:07:27.241Z,21.30
2023-12-08T17:09:54.594Z,21.67
2023-12-08T17:12:21.997Z,21.73
2023-12-08T17:14:49.335Z,21.75
2023-12-08T17:17:20.377Z,21.60
2023-12-08T17:19:48.658Z,22.60
2023-12-08T17:22:17.332Z,22.23
2023-12-08T17:24:44.333Z,24.05
2023-12-08T17:27:11.912Z,23.42
2023-12-08T17:29:38.915Z,22.77
2023-12-08T17:32:06.293Z,21.85
2023-12-08T17:34:33.427Z,22.90
2023-12-08T17:37:00.782Z,23.45
2023-12-08T17:39:27.999Z,23.98
2023-12-08T17:41:55.352Z,22.30
2023-12-08T17:44:22.324Z,22.30
2023-12-08T17:46:49.613Z,23.27
2023-12-08T17:49:16.661Z,23.48
2023-12-08T17:51:44.011Z,22.05
2023-12-08T17:54:10.986Z,21.92
2023-12-08T17:56:38.216Z,24.30
2023-12-08T17:59:05.135Z,23.58
2023-12-08T18:01:32.412Z,21.73
2023-12-08T18:03:59.414Z,24.02
2023-12-08T18:06:27.300Z,23.10
2023-12-08T18:09:31.370Z,24.63
2023-12-08T18:11:58.876Z,24.40
2023-12-08T18:14:53.043Z,25.02
2023-12-08T18:17:53.376Z,24.50
2023-12-08T18:20:20.744Z,23.98
2023-12-08T18:22:47.930Z,25.25
2023-12-08T18:25:15.016Z,23.50
2023-12-08T18:27:57.413Z,22.55
2023-12-08T18:30:45.808Z,22.13
2023-12-08T18:33:18.581Z,25.77
2023-12-08T18:35:45.645Z,23.90
2023-12-08T18:38:13.110Z,24.70
2023-12-08T18:40:40.063Z,24.00
2023-12-08T18:43:07.277Z,24.48
2023-12-08T18:45:34.395Z,23.70
2023-12-08T18:48:48.787Z,25.30
2023-12-08T18:51:16.927Z,25.33
2023-12-08T18:53:44.838Z,25.02
2023-12-08T18:56:11.850Z,26.25
2023-12-08T18:58:39.117Z,24.55
2023-12-08T19:01:07.183Z,24.35
2023-12-08T19:07:05.824Z,24.83
2023-12-08T19:09:32.976Z,25.35
2023-12-08T19:12:03.947Z,25.10
2023-12-08T19:14:31.670Z,27.60
2023-12-08T19:16:58.988Z,27.63
2023-12-08T19:19:36.374Z,25.48
2023-12-08T19:22:04.099Z,27.27
2023-12-08T19:24:31.951Z,26.33
2023-12-08T19:27:35.117Z,27.38
2023-12-08T19:30:02.239Z,27.00
2023-12-08T19:32:38.990Z,25.77
2023-12-08T19:35:07.922Z,26.08
2023-12-08T19:37:35.342Z,26.80
2023-12-08T19:40:21.065Z,27.63
2023-12-08T19:43:32.098Z,27.33
2023-12-08T19:45:59.713Z,27.33
2023-12-08T19:48:27.910Z,27.45
2023-12-08T19:50:55.161Z,28.83
2023-12-08T19:56:12.066Z,28.38
2023-12-08T19:59:04.253Z,29.70
2023-12-08T20:01:31.284Z,27.75
2023-12-08T20:03:59.045Z,29.23
2023-12-08T20:06:26.437Z,27.58
2023-12-08T20:08:53.790Z,29.92
2023-12-08T20:12:07.201Z,27.70
2023-12-08T20:14:36.636Z,29.17
2023-12-08T20:17:05.117Z,28.02
2023-12-08T20:19:32.851Z,30.75
2023-12-08T20:22:49.412Z,27.83
2023-12-08T20:25:18.754Z,27.83
2023-12-08T20:31:23.925Z,28.77
2023-12-08T20:34:39.452Z,27.88
2023-12-08T20:37:06.779Z,24.00
2023-12-08T20:39:33.739Z,27.70
2023-12-08T20:42:01.106Z,28.23
2023-12-08T20:44:28.088Z,28.42
2023-12-08T20:46:57.467Z,27.08
2023-12-08T20:49:24.638Z,28.40
2023-12-08T20:51:51.995Z,29.17
2023-12-08T20:54:19.169Z,30.63
2023-12-08T20:56:46.580Z,29.23
2023-12-08T20:59:13.606Z,29.30
2023-12-08T21:01:41.333Z,27.25
2023-12-08T21:04:08.637Z,30.27
2023-12-08T21:06:36.102Z,29.52
2023-12-08T21:09:03.521Z,30.10
2023-12-08T21:11:31.463Z,30.35
2023-12-08T21:14:00.379Z,28.35
2023-12-08T21:16:27.693Z,28.85
2023-12-08T21:18:54.931Z,30.15
2023-12-08T21:21:22.535Z,29.95
2023-12-08T21:23:49.787Z,29.42
2023-12-08T21:26:17.246Z,27.30
2023-12-08T21:28:44.448Z,27.58
2023-12-08T21:31:11.702Z,28.35
2023-12-08T21:33:39.297Z,28.63
2023-12-08T21:36:06.825Z,30.17
2023-12-08T21:38:33.834Z,28.38
2023-12-08T21:41:01.082Z,29.75
2023-12-08T21:43:28.184Z,27.92
2023-12-08T21:45:55.531Z,29.75
2023-12-08T21:48:22.930Z,27.77
2023-12-08T21:50:50.367Z,28.90
2023-12-08T21:53:17.442Z,28.17
2023-12-08T21:55:45.366Z,30.30
2023-12-08T21:58:12.444Z,26.65
2023-12-08T22:00:40.440Z,30.35
2023-12-08T22:03:07.889Z,28.15
2023-12-08T22:05:35.335Z,26.52
2023-12-08T22:08:02.451Z,30.17
2023-12-08T22:10:29.657Z,28.90
2023-12-08T22:12:56.577Z,28.35
2023-12-08T22:15:23.918Z,28.83
2023-12-08T22:17:51.149Z,28.92
2023-12-08T22:20:18.451Z,29.92
2023-12-08T22:22:45.562Z,28.52
2023-12-08T22:25:12.908Z,28.58
2023-12-08T22:27:39.979Z,28.25
2023-12-08T22:30:08.297Z,29.83
2023-12-08T22:33:02.168Z,29.52
2023-12-08T22:35:29.569Z,27.52
2023-12-08T22:37:56.619Z,29.27
2023-12-08T22:40:23.767Z,30.40
2023-12-08T22:42:50.916Z,28.83
2023-12-08T22:45:18.178Z,26.67
2023-12-08T22:47:45.218Z,29.58
2023-12-08T22:50:12.777Z,28.65
2023-12-08T22:52:39.952Z,27.17
2023-12-08T22:55:08.404Z,27.90
2023-12-08T22:57:35.543Z,28.60
2023-12-08T23:00:03.163Z,27.73
2023-12-08T23:02:30.403Z,28.63
2023-12-08T23:04:57.739Z,28.00
2023-12-08T23:07:24.777Z,30.17
2023-12-08T23:09:52.049Z,29.67
2023-12-08T23:12:19.045Z,28.77
2023-12-08T23:14:46.290Z,28.58
2023-12-08T23:17:13.190Z,28.83
2023-12-08T23:19:41.631Z,28.23
2023-12-08T23:22:08.852Z,28.38
2023-12-08T23:24:36.162Z,27.63
2023-12-08T23:27:03.306Z,27.00
2023-12-08T23:29:30.566Z,26.73
2023-12-08T23:31:57.625Z,27.52
2023-12-08T23:34:25.221Z,27.15
2023-12-08T23:36:52.349Z,28.15
2023-12-08T23:39:19.777Z,25.88
2023-12-08T23:41:46.880Z,26.98
2023-12-08T23:44:14.339Z,25.70
2023-12-08T23:46:41.364Z,28.02
2023-12-08T23:49:08.911Z,26.92
2023-12-08T23:51:36.238Z,27.73
2023-12-08T23:54:03.649Z,26.15
2023-12-08T23:56:30.728Z,26.52
2023-12-08T23:58:57.964Z,28.13
